Decoded Metar for LFKJ (AJACCIO in CORSE ISL.) (IATA:AJA) | Meteo·Mobile Aviation Weather
aviador You're here:

LFKJ Decoded Metar

AJACCIO in CORSE ISL.
Report Time2018-10-18 16:00:00
UTC Time2018-10-18 16:07:09
Flight Rules vfr VFR
Wind210° at 06 kt
W.Decomp.*RWY 20: 5.9 kt HW 0.9 kt RCW
W.Rank210° ranks 7
Current wind is below 210° avg. (7.4)
Visibility9999 m
Phenomena:N/A
Clouds:N/A
Expected CloudBase > 2,000 ft AGL from Temp-Dew spread
CeilingNone
Temp24°C (ISA +9)
Dew Point19°C (74% RH)
QNH1010 hPa
Density Alt1,473 ft
Elevation30 ft
Report Wrong Elevation
Raw Report
METAR LFKJ 181600Z AUTO 21006KT CAVOK 24/19 Q1010 NOSIG=

Extra information for LFKJ:More info

Metar Taf Metar & Taf Last 4 Metars F.Rules Stats Wind Profile Meteogram Temp Stats Airport Information Weather charts Add Link Nearby VenuesMetar ALERT Operation Metar Decoded Social comments